Time;durP1;ratioP1;P1;durP2;ratioP2;P2;SDS_P1;SDS_P2;PMS_P1;PMS_P2;Temp;Humidity;BMP_temperature;BMP_pressure;BME280_temperature;BME280_humidity;BME280_pressure;Samples;Min_cycle;Max_cycle;Signal;HPM_P1;HPM_P2
2022/07/13 00:02:13;;;;;;;1.27;1.17;;;23.60;45.90;;;;;;4980873;28;20054;-53
2022/07/13 00:04:40;;;;;;;0.93;0.90;;;23.60;45.90;;;;;;4982536;28;20053;-50
2022/07/13 00:07:08;;;;;;;0.80;0.80;;;23.60;46.00;;;;;;4982346;28;20061;-48
2022/07/13 00:09:37;;;;;;;1.40;1.10;;;23.60;46.00;;;;;;4982990;28;20054;-50
2022/07/13 00:12:05;;;;;;;1.42;1.08;;;23.60;46.10;;;;;;4982689;28;20513;-49
2022/07/13 00:14:32;;;;;;;4.13;1.20;;;23.60;46.00;;;;;;4980221;28;20057;-49
2022/07/13 00:17:00;;;;;;;2.78;1.30;;;23.60;46.10;;;;;;4979140;28;20068;-50
2022/07/13 00:19:27;;;;;;;1.20;1.10;;;23.60;46.10;;;;;;4982485;28;20061;-48
2022/07/13 00:21:55;;;;;;;1.23;1.13;;;23.50;46.10;;;;;;4982557;28;20061;-50
2022/07/13 00:24:23;;;;;;;1.05;0.95;;;23.50;46.20;;;;;;4980764;28;20050;-54
2022/07/13 00:26:52;;;;;;;1.10;1.00;;;23.50;46.20;;;;;;4978282;28;20601;-51
2022/07/13 00:29:19;;;;;;;3.50;1.38;;;23.50;46.30;;;;;;4981477;28;20054;-53
2022/07/13 00:31:47;;;;;;;1.45;1.10;;;23.50;46.40;;;;;;4980063;28;20501;-56
2022/07/13 00:34:15;;;;;;;1.25;1.13;;;23.50;46.50;;;;;;4981230;28;20046;-54
2022/07/13 00:36:42;;;;;;;1.20;1.10;;;23.50;46.50;;;;;;4980588;28;20050;-54
2022/07/13 00:39:10;;;;;;;1.70;1.10;;;23.50;46.50;;;;;;4983416;28;20424;-53
2022/07/13 00:41:44;;;;;;;1.10;1.00;;;23.40;46.60;;;;;;4982111;28;20066;-51
2022/07/13 00:44:13;;;;;;;;;;;23.50;46.80;;;;;;4983007;28;20050;-49
2022/07/13 00:46:41;;;;;;;2.25;1.27;;;23.50;46.70;;;;;;4979310;28;19933;-52
2022/07/13 00:49:10;;;;;;;1.40;1.20;;;23.50;46.70;;;;;;4983218;28;20057;-49
2022/07/13 00:51:39;;;;;;;1.33;1.10;;;23.50;46.80;;;;;;4980835;28;20054;-50
2022/07/13 00:54:07;;;;;;;1.92;1.30;;;23.40;46.80;;;;;;4981575;28;20054;-56
2022/07/13 00:56:35;;;;;;;1.83;1.50;;;23.40;46.70;;;;;;4981047;28;20065;-52
2022/07/13 00:59:05;;;;;;;1.88;1.27;;;23.40;46.90;;;;;;4982867;28;20398;-50
2022/07/13 01:01:34;;;;;;;1.50;1.17;;;23.40;47.00;;;;;;4980666;28;20050;-53
2022/07/13 01:04:01;;;;;;;1.40;1.30;;;23.30;46.90;;;;;;4981499;28;20485;-50
2022/07/13 01:06:29;;;;;;;5.18;1.50;;;23.30;46.90;;;;;;4981094;28;20054;-51
2022/07/13 01:08:56;;;;;;;1.77;1.23;;;23.30;47.10;;;;;;4983136;28;20054;-50
2022/07/13 01:11:23;;;;;;;2.45;1.30;;;23.30;47.10;;;;;;4982336;28;20054;-48
2022/07/13 01:13:51;;;;;;;1.45;1.20;;;23.30;47.10;;;;;;4981209;28;20421;-49
2022/07/13 01:16:19;;;;;;;1.52;1.25;;;23.30;47.20;;;;;;4981038;28;20054;-48
2022/07/13 01:18:48;;;;;;;1.45;1.27;;;23.20;47.10;;;;;;4981993;28;20505;-50
2022/07/13 01:21:16;;;;;;;3.83;1.30;;;23.20;47.40;;;;;;4983476;28;20046;-56
2022/07/13 01:23:45;;;;;;;1.50;1.23;;;23.20;47.40;;;;;;4981880;28;20057;-51
2022/07/13 01:26:12;;;;;;;5.05;1.30;;;23.20;47.50;;;;;;4978193;28;20057;-53
2022/07/13 01:28:40;;;;;;;1.50;1.10;;;23.20;47.60;;;;;;4980982;28;20070;-50
2022/07/13 01:31:07;;;;;;;1.38;1.13;;;23.20;47.60;;;;;;4981194;28;20050;-50
2022/07/13 01:33:35;;;;;;;2.95;1.20;;;23.20;47.60;;;;;;4979805;28;20054;-49
2022/07/13 01:36:02;;;;;;;1.30;1.20;;;23.20;47.50;;;;;;4978846;28;20054;-48
2022/07/13 01:38:30;;;;;;;2.22;1.30;;;23.10;47.50;;;;;;4977779;28;20066;-54
2022/07/13 01:40:58;;;;;;;2.95;1.35;;;23.10;47.50;;;;;;4978080;28;20057;-50
2022/07/13 01:43:29;;;;;;;1.17;1.08;;;23.10;47.50;;;;;;4981067;28;20054;-52
2022/07/13 01:45:56;;;;;;;1.50;1.17;;;23.10;47.40;;;;;;4977917;28;20050;-52
2022/07/13 01:48:24;;;;;;;1.75;1.30;;;23.10;47.40;;;;;;4984437;28;20046;-54
2022/07/13 01:50:51;;;;;;;2.30;1.52;;;23.10;47.50;;;;;;4986295;28;20058;-52
2022/07/13 01:53:19;;;;;;;2.58;1.35;;;23.10;47.50;;;;;;4984535;28;20065;-54
2022/07/13 01:55:46;;;;;;;1.17;1.00;;;23.10;47.60;;;;;;4984245;28;20054;-51
2022/07/13 01:58:16;;;;;;;2.33;1.50;;;23.00;47.80;;;;;;4986204;28;20062;-50
2022/07/13 02:00:43;;;;;;;1.50;1.33;;;23.10;48.30;;;;;;4984584;28;20061;-48
2022/07/13 02:03:11;;;;;;;3.20;1.27;;;23.00;48.40;;;;;;4984178;28;20054;-50
2022/07/13 02:05:39;;;;;;;2.42;1.33;;;23.00;48.70;;;;;;4985090;28;20061;-48
2022/07/13 02:08:07;;;;;;;2.88;1.33;;;23.10;48.80;;;;;;4986465;28;20502;-52
2022/07/13 02:10:37;;;;;;;1.58;1.30;;;23.00;48.80;;;;;;4985260;28;20046;-51
2022/07/13 02:13:05;;;;;;;2.63;1.40;;;23.00;48.90;;;;;;4984028;28;20129;-54
2022/07/13 02:15:34;;;;;;;2.13;1.38;;;23.00;49.00;;;;;;4982594;28;20046;-50
2022/07/13 02:18:02;;;;;;;2.85;1.52;;;23.00;49.20;;;;;;4984183;28;20061;-53
2022/07/13 02:20:29;;;;;;;1.60;1.50;;;23.00;49.20;;;;;;4985738;28;20054;-50
2022/07/13 02:22:57;;;;;;;1.80;1.30;;;23.00;49.40;;;;;;4984843;28;20063;-50
2022/07/13 02:25:24;;;;;;;1.50;1.40;;;23.00;49.30;;;;;;4983148;28;20050;-54
2022/07/13 02:27:52;;;;;;;1.60;1.40;;;22.90;49.30;;;;;;4985336;28;20054;-53
2022/07/13 02:30:19;;;;;;;2.97;1.30;;;22.90;49.40;;;;;;4983013;28;20050;-49
2022/07/13 02:32:49;;;;;;;1.88;1.67;;;22.90;49.40;;;;;;4984525;28;20069;-51
2022/07/13 02:35:16;;;;;;;1.63;1.45;;;22.90;49.60;;;;;;4982797;28;20057;-50
2022/07/13 02:37:44;;;;;;;1.77;1.63;;;22.90;49.60;;;;;;4984799;28;20102;-49
2022/07/13 02:40:12;;;;;;;1.95;1.48;;;22.90;49.60;;;;;;4985532;28;20054;-50
2022/07/13 02:42:40;;;;;;;1.70;1.60;;;22.90;49.70;;;;;;4985178;28;20415;-53
2022/07/13 02:45:08;;;;;;;2.15;1.63;;;22.90;49.80;;;;;;4981829;28;20409;-53
2022/07/13 02:47:36;;;;;;;6.05;1.65;;;22.80;50.30;;;;;;4981403;28;20058;-50
2022/07/13 02:50:06;;;;;;;1.17;1.08;;;22.80;49.70;;;;;;4985303;28;20057;-54
2022/07/13 02:52:33;;;;;;;1.60;1.50;;;22.80;49.70;;;;;;4980497;28;20058;-48
2022/07/13 02:55:01;;;;;;;2.28;1.40;;;22.80;49.60;;;;;;4981108;28;20050;-51
2022/07/13 02:57:28;;;;;;;1.35;1.25;;;22.80;49.50;;;;;;4980961;28;20506;-50
2022/07/13 02:59:56;;;;;;;1.77;1.40;;;22.80;49.50;;;;;;4985385;28;20051;-50
2022/07/13 03:02:23;;;;;;;1.70;1.50;;;22.70;49.50;;;;;;4983254;28;20049;-51
2022/07/13 03:04:51;;;;;;;1.45;1.35;;;22.80;49.70;;;;;;4980187;28;20050;-52
2022/07/13 03:07:19;;;;;;;8.82;2.03;;;22.70;49.70;;;;;;4979749;28;20058;-50
2022/07/13 03:09:47;;;;;;;2.22;1.35;;;22.70;49.70;;;;;;4979981;28;20058;-51
2022/07/13 03:12:14;;;;;;;1.83;1.25;;;22.70;49.70;;;;;;4983019;28;20054;-49
2022/07/13 03:14:42;;;;;;;1.67;1.30;;;22.70;49.80;;;;;;4982504;28;20061;-49
2022/07/13 03:17:10;;;;;;;2.20;1.48;;;22.70;49.80;;;;;;4982500;28;20054;-54
2022/07/13 03:19:37;;;;;;;1.60;1.40;;;22.70;49.70;;;;;;4984857;28;20383;-48
2022/07/13 03:22:05;;;;;;;1.67;1.55;;;22.70;49.80;;;;;;4984999;28;20050;-51
2022/07/13 03:24:34;;;;;;;2.50;1.52;;;22.70;49.80;;;;;;4982015;28;20058;-48
2022/07/13 03:27:01;;;;;;;2.28;1.50;;;22.70;49.80;;;;;;4983444;28;20071;-49
2022/07/13 03:29:29;;;;;;;3.97;1.45;;;22.70;49.80;;;;;;4984851;28;20054;-48
2022/07/13 03:31:56;;;;;;;1.75;1.58;;;22.70;49.80;;;;;;4983165;28;20069;-48
2022/07/13 03:34:25;;;;;;;3.60;1.50;;;22.70;49.90;;;;;;4983401;28;20066;-51
2022/07/13 03:36:53;;;;;;;1.73;1.35;;;22.70;50.00;;;;;;4982003;28;20050;-50
2022/07/13 03:39:20;;;;;;;1.27;1.17;;;22.70;50.10;;;;;;4981655;28;20054;-51
2022/07/13 03:41:49;;;;;;;2.08;1.63;;;22.70;50.10;;;;;;4981604;28;20054;-48
2022/07/13 03:44:18;;;;;;;2.42;1.35;;;22.70;50.20;;;;;;4982530;28;20061;-48
2022/07/13 03:46:45;;;;;;;1.50;1.40;;;22.70;50.30;;;;;;4978585;28;20065;-56
2022/07/13 03:49:13;;;;;;;1.92;1.35;;;22.70;50.40;;;;;;4984330;28;20054;-50
2022/07/13 03:51:41;;;;;;;2.25;1.42;;;22.70;50.30;;;;;;4983393;28;20054;-52
2022/07/13 03:54:08;;;;;;;4.43;1.50;;;22.70;50.40;;;;;;4983331;28;20050;-48
2022/07/13 03:56:36;;;;;;;1.70;1.45;;;22.70;50.40;;;;;;4982677;28;20046;-48
2022/07/13 03:59:05;;;;;;;1.70;1.50;;;22.70;50.30;;;;;;4984135;28;20054;-50
2022/07/13 04:01:33;;;;;;;1.85;1.20;;;22.70;50.20;;;;;;4982317;28;20506;-48
2022/07/13 04:04:00;;;;;;;1.73;1.35;;;22.70;50.20;;;;;;4981133;28;20061;-48
2022/07/13 04:06:28;;;;;;;2.30;1.38;;;22.70;50.10;;;;;;4974045;28;20062;-51
2022/07/13 04:08:55;;;;;;;3.47;1.42;;;22.70;50.00;;;;;;4989662;28;20062;-48
2022/07/13 04:11:23;;;;;;;1.75;1.27;;;22.70;50.00;;;;;;4980778;28;20066;-50
2022/07/13 04:13:50;;;;;;;2.95;1.40;;;22.70;49.80;;;;;;4978680;28;20065;-54
2022/07/13 04:16:19;;;;;;;2.38;1.40;;;22.70;49.80;;;;;;4979935;28;20050;-56
2022/07/13 04:18:47;;;;;;;1.83;1.30;;;22.70;49.80;;;;;;4982293;28;20494;-50
2022/07/13 04:21:14;;;;;;;6.15;1.50;;;22.70;49.80;;;;;;4983404;28;20493;-48
2022/07/13 04:23:42;;;;;;;2.15;1.48;;;22.70;49.80;;;;;;4978247;28;20058;-51
2022/07/13 04:26:09;;;;;;;1.50;1.40;;;22.70;49.70;;;;;;4974203;28;20050;-49
2022/07/13 04:28:37;;;;;;;2.50;1.40;;;22.70;49.70;;;;;;4982888;28;20054;-52
2022/07/13 04:31:05;;;;;;;3.78;1.48;;;22.70;49.70;;;;;;4980488;28;20717;-49
2022/07/13 04:33:33;;;;;;;1.70;1.40;;;22.70;49.60;;;;;;4980251;28;20054;-51
2022/07/13 04:36:01;;;;;;;2.28;1.50;;;22.70;49.60;;;;;;4980617;28;20518;-50
2022/07/13 04:38:28;;;;;;;3.60;1.30;;;22.70;49.60;;;;;;4983665;28;20050;-49
2022/07/13 04:40:56;;;;;;;2.25;1.50;;;22.70;49.70;;;;;;4983173;28;20046;-51
2022/07/13 04:43:24;;;;;;;2.53;1.38;;;22.70;49.60;;;;;;4982031;28;20058;-48
2022/07/13 04:45:52;;;;;;;1.55;1.27;;;22.70;49.60;;;;;;4980269;28;20437;-50
2022/07/13 04:48:19;;;;;;;4.45;1.67;;;22.80;49.60;;;;;;4982768;28;20046;-55
2022/07/13 04:50:48;;;;;;;3.45;1.60;;;22.80;49.60;;;;;;4977897;28;20058;-48
2022/07/13 04:53:16;;;;;;;4.13;1.40;;;22.80;49.70;;;;;;4981983;28;20057;-50
2022/07/13 04:55:44;;;;;;;2.67;1.70;;;22.80;49.70;;;;;;4978335;28;20058;-52
2022/07/13 04:58:11;;;;;;;2.17;1.45;;;22.80;49.60;;;;;;4979414;28;20057;-49
2022/07/13 05:00:39;;;;;;;8.57;1.58;;;22.80;49.60;;;;;;4982053;28;20158;-51
2022/07/13 05:03:06;;;;;;;3.03;1.50;;;22.80;49.60;;;;;;4983128;28;20074;-50
2022/07/13 05:05:34;;;;;;;2.38;1.20;;;22.80;49.60;;;;;;4980416;28;20053;-49
2022/07/13 05:08:03;;;;;;;4.40;1.88;;;22.80;49.60;;;;;;4982574;28;20847;-50
2022/07/13 05:10:31;;;;;;;1.88;1.50;;;22.80;49.70;;;;;;4982113;28;20113;-53
2022/07/13 05:12:58;;;;;;;2.75;1.45;;;22.80;49.70;;;;;;4977365;28;20053;-48
2022/07/13 05:15:26;;;;;;;3.70;1.70;;;22.80;49.70;;;;;;4977847;28;20089;-48
2022/07/13 05:17:56;;;;;;;5.50;1.75;;;22.80;49.80;;;;;;4982364;28;20062;-49
2022/07/13 05:20:23;;;;;;;2.80;1.33;;;22.80;49.70;;;;;;4981891;28;20055;-49
2022/07/13 05:22:51;;;;;;;1.50;1.30;;;22.80;49.60;;;;;;4985387;28;20066;-48
2022/07/13 05:25:20;;;;;;;1.63;1.33;;;22.80;49.60;;;;;;4981683;28;20069;-52
2022/07/13 05:27:48;;;;;;;2.67;1.35;;;22.90;49.70;;;;;;4985661;28;20486;-51
2022/07/13 05:30:15;;;;;;;1.92;1.40;;;22.90;49.60;;;;;;4983130;28;20054;-55
2022/07/13 05:32:43;;;;;;;2.83;1.70;;;22.90;49.60;;;;;;4985095;28;20533;-51
2022/07/13 05:35:10;;;;;;;3.25;1.60;;;23.00;49.80;;;;;;4983783;28;20058;-52
2022/07/13 05:37:38;;;;;;;2.67;1.75;;;23.00;49.70;;;;;;4980188;28;20050;-48
2022/07/13 05:40:07;;;;;;;2.50;1.50;;;23.00;49.60;;;;;;4985955;28;20061;-50
2022/07/13 05:42:35;;;;;;;2.72;1.88;;;23.00;49.60;;;;;;4985281;28;20050;-53
2022/07/13 05:45:04;;;;;;;4.47;1.45;;;23.10;49.70;;;;;;4981427;28;20061;-52
2022/07/13 05:47:31;;;;;;;1.63;1.50;;;23.10;49.70;;;;;;4982707;28;20050;-49
2022/07/13 05:49:59;;;;;;;2.35;1.67;;;23.10;49.70;;;;;;4984842;28;20054;-55
2022/07/13 05:52:26;;;;;;;1.63;1.42;;;23.10;49.90;;;;;;4982522;28;20046;-50
2022/07/13 05:54:54;;;;;;;2.85;1.63;;;23.20;50.10;;;;;;4985410;28;20054;-50
2022/07/13 05:57:22;;;;;;;2.88;1.50;;;23.20;50.10;;;;;;4983253;28;20054;-50
2022/07/13 05:59:50;;;;;;;5.32;1.35;;;23.20;50.20;;;;;;4980321;28;20063;-49
2022/07/13 06:02:18;;;;;;;1.77;1.40;;;23.20;50.10;;;;;;4980650;28;20058;-55
2022/07/13 06:04:46;;;;;;;3.00;1.75;;;23.30;50.00;;;;;;4982540;28;20417;-50
2022/07/13 06:07:13;;;;;;;2.25;1.70;;;23.30;50.00;;;;;;4984591;28;20051;-48
2022/07/13 06:09:41;;;;;;;1.73;1.40;;;23.30;50.00;;;;;;4981694;28;20425;-50
2022/07/13 06:12:08;;;;;;;2.08;1.80;;;23.40;50.10;;;;;;4982200;28;20065;-52
2022/07/13 06:14:36;;;;;;;1.60;1.50;;;23.40;50.10;;;;;;4978703;28;20053;-48
2022/07/13 06:17:04;;;;;;;2.35;1.60;;;23.40;50.30;;;;;;4979350;28;20435;-48
2022/07/13 06:19:33;;;;;;;25.90;14.35;;;23.40;50.50;;;;;;4983495;28;20050;-50
2022/07/13 06:22:00;;;;;;;19.33;11.15;;;23.40;50.70;;;;;;4986074;28;20081;-50
2022/07/13 06:24:28;;;;;;;8.43;4.60;;;23.40;50.80;;;;;;4983295;28;20050;-51
2022/07/13 06:26:55;;;;;;;4.93;2.67;;;23.40;51.00;;;;;;4983386;28;20486;-50
2022/07/13 06:29:23;;;;;;;2.03;1.83;;;23.40;51.20;;;;;;4983377;28;20058;-52
2022/07/13 06:31:50;;;;;;;3.13;1.60;;;23.50;51.20;;;;;;4982432;28;20054;-48
2022/07/13 06:34:19;;;;;;;1.83;1.67;;;23.50;51.00;;;;;;4983632;28;20066;-48
2022/07/13 06:36:47;;;;;;;1.80;1.63;;;23.50;51.00;;;;;;4981819;28;20054;-51
2022/07/13 06:39:14;;;;;;;2.83;1.38;;;23.50;50.70;;;;;;4982562;28;20069;-49
2022/07/13 06:41:42;;;;;;;1.70;1.55;;;23.50;50.50;;;;;;4984775;28;20409;-51
2022/07/13 06:44:09;;;;;;;2.05;1.33;;;23.60;50.50;;;;;;4983176;28;20065;-50
2022/07/13 06:46:37;;;;;;;3.22;1.80;;;23.60;50.50;;;;;;4979311;28;20057;-52
2022/07/13 06:49:04;;;;;;;2.15;1.33;;;23.60;50.80;;;;;;4983689;28;20058;-50
2022/07/13 06:51:33;;;;;;;4.15;1.75;;;23.60;50.90;;;;;;4982775;28;20517;-49
2022/07/13 06:54:01;;;;;;;3.67;1.65;;;23.60;51.00;;;;;;4981616;28;20058;-50
2022/07/13 06:56:29;;;;;;;3.30;1.90;;;23.70;50.70;;;;;;4981590;28;20050;-49
2022/07/13 06:58:56;;;;;;;3.08;1.70;;;23.60;50.40;;;;;;4984093;28;20418;-49
2022/07/13 07:01:24;;;;;;;1.95;1.48;;;23.60;50.50;;;;;;4982009;28;20481;-56
2022/07/13 07:03:52;;;;;;;3.30;1.70;;;23.70;50.60;;;;;;4978628;28;20057;-52
2022/07/13 07:06:19;;;;;;;2.00;1.40;;;23.70;50.80;;;;;;4979825;28;20054;-51
2022/07/13 07:08:48;;;;;;;3.83;1.60;;;23.70;50.80;;;;;;4983893;28;20054;-53
2022/07/13 07:11:15;;;;;;;1.65;1.35;;;23.70;51.10;;;;;;4983120;28;20069;-54
2022/07/13 07:13:43;;;;;;;2.25;1.70;;;23.80;51.40;;;;;;4982502;28;20050;-50
2022/07/13 07:16:10;;;;;;;2.40;1.48;;;23.80;51.50;;;;;;4982054;28;20065;-51
2022/07/13 07:18:38;;;;;;;1.60;1.40;;;23.80;51.20;;;;;;4981005;28;20057;-50
2022/07/13 07:21:05;;;;;;;3.33;1.50;;;23.90;50.90;;;;;;4982315;28;20062;-53
2022/07/13 07:23:33;;;;;;;6.90;1.60;;;23.90;50.70;;;;;;4983694;28;20502;-49
2022/07/13 07:26:02;;;;;;;1.73;1.38;;;24.00;50.80;;;;;;4982176;28;20054;-50
2022/07/13 07:28:29;;;;;;;3.05;1.55;;;24.10;50.70;;;;;;4983816;28;20046;-52
2022/07/13 07:30:57;;;;;;;2.25;1.35;;;24.10;50.80;;;;;;4978221;28;20062;-51
2022/07/13 07:33:24;;;;;;;2.65;1.50;;;24.10;50.60;;;;;;4979952;28;20486;-50
2022/07/13 07:35:52;;;;;;;4.43;1.52;;;24.20;50.60;;;;;;4978900;28;20065;-50
2022/07/13 07:38:19;;;;;;;2.38;1.40;;;24.30;50.40;;;;;;4981910;28;20051;-51
2022/07/13 07:40:47;;;;;;;1.50;1.33;;;24.40;50.50;;;;;;4982582;28;20054;-56
2022/07/13 07:43:15;;;;;;;2.15;1.25;;;24.40;50.40;;;;;;4978491;28;20069;-55
2022/07/13 07:45:43;;;;;;;1.95;1.50;;;24.40;50.20;;;;;;4977594;28;20057;-53
2022/07/13 07:48:10;;;;;;;2.10;1.40;;;24.50;50.10;;;;;;4980240;28;20054;-52
2022/07/13 07:50:38;;;;;;;1.63;1.50;;;24.60;50.00;;;;;;4976412;28;20058;-49
2022/07/13 07:53:05;;;;;;;2.40;1.30;;;24.70;50.00;;;;;;4980011;28;20058;-50
2022/07/13 07:55:33;;;;;;;4.13;1.83;;;24.80;49.80;;;;;;4980005;28;20077;-56
2022/07/13 07:58:00;;;;;;;3.03;1.40;;;24.80;49.70;;;;;;4981016;28;20057;-50
2022/07/13 08:00:30;;;;;;;2.45;1.50;;;24.90;49.60;;;;;;4978558;28;20417;-51
2022/07/13 08:03:02;;;;;;;1.52;1.33;;;25.00;50.00;;;;;;4981736;28;20058;-53
2022/07/13 08:05:30;;;;;;;3.80;1.77;;;25.10;49.90;;;;;;4977214;28;20054;-52
2022/07/13 08:07:58;;;;;;;3.58;1.75;;;25.20;50.00;;;;;;4977686;28;20134;-56
2022/07/13 08:10:26;;;;;;;1.60;1.20;;;25.20;50.00;;;;;;4981046;28;20050;-53
2022/07/13 08:12:54;;;;;;;3.58;1.38;;;25.30;50.00;;;;;;4981678;28;20058;-47
2022/07/13 08:15:22;;;;;;;3.33;1.50;;;25.40;49.80;;;;;;4979146;28;20392;-49
2022/07/13 08:17:51;;;;;;;4.38;1.67;;;25.50;49.10;;;;;;4980568;28;20054;-51
2022/07/13 08:20:18;;;;;;;2.08;1.33;;;25.60;48.10;;;;;;4983940;28;20065;-48
2022/07/13 08:22:45;;;;;;;2.05;1.27;;;25.70;47.30;;;;;;4980799;28;20130;-50
2022/07/13 08:25:13;;;;;;;3.38;1.42;;;25.80;46.80;;;;;;4984153;28;20426;-46
2022/07/13 08:27:40;;;;;;;1.42;1.20;;;25.90;46.70;;;;;;4980399;28;20494;-51
2022/07/13 08:30:11;;;;;;;1.95;1.10;;;26.00;46.10;;;;;;4981640;28;20069;-51
2022/07/13 08:32:39;;;;;;;5.25;1.63;;;26.00;45.50;;;;;;4980503;28;20054;-54
2022/07/13 08:40:42;;;;;;;4.75;1.95;;;26.30;44.90;;;;;;4987347;28;20061;-49
2022/07/13 08:43:10;;;;;;;2.28;1.20;;;26.40;44.70;;;;;;4976522;28;20058;-52
2022/07/13 08:45:38;;;;;;;7.28;2.05;;;26.50;44.80;;;;;;4978410;28;20054;-48
2022/07/13 08:48:15;;;;;;;5.03;1.27;;;26.50;45.10;;;;;;4982275;28;20054;-48
2022/07/13 08:50:45;;;;;;;2.10;1.42;;;26.50;44.80;;;;;;4983435;28;20063;-50
2022/07/13 08:53:12;;;;;;;2.17;1.20;;;26.60;44.60;;;;;;4983856;28;20050;-49
2022/07/13 08:55:41;;;;;;;1.30;1.10;;;26.70;44.70;;;;;;4980110;28;20061;-50
2022/07/13 08:58:11;;;;;;;2.00;1.30;;;26.70;44.80;;;;;;4982082;28;20054;-48
2022/07/13 09:00:42;;;;;;;2.08;1.25;;;26.80;44.70;;;;;;4981644;28;20058;-51
2022/07/13 09:03:10;;;;;;;1.95;1.10;;;26.90;44.80;;;;;;4978152;28;20599;-50
2022/07/13 09:05:38;;;;;;;3.55;1.48;;;26.90;44.80;;;;;;4976487;28;20537;-51
2022/07/13 09:08:09;;;;;;;4.70;1.40;;;27.00;44.70;;;;;;4977948;28;20502;-49
2022/07/13 09:10:52;;;;;;;3.15;1.45;;;27.10;44.30;;;;;;4980642;28;20057;-55
2022/07/13 09:13:41;;;;;;;4.57;2.22;;;27.20;42.80;;;;;;4977961;28;20077;-49
2022/07/13 09:16:16;;;;;;;3.05;1.30;;;27.30;43.80;;;;;;4965467;28;20053;-48
2022/07/13 09:18:44;;;;;;;1.88;1.10;;;27.40;43.40;;;;;;4974380;28;20050;-50
2022/07/13 09:21:12;;;;;;;1.33;0.98;;;27.50;43.50;;;;;;4975858;28;20391;-47
2022/07/13 09:23:42;;;;;;;5.47;1.60;;;27.60;43.50;;;;;;4983797;28;20065;-50
2022/07/13 09:26:09;;;;;;;3.20;1.52;;;27.70;43.20;;;;;;4979109;28;20058;-49
2022/07/13 09:28:44;;;;;;;2.35;1.30;;;27.80;42.80;;;;;;4981899;28;20050;-47
2022/07/13 09:31:12;;;;;;;5.97;1.50;;;27.90;42.40;;;;;;4976950;28;20125;-48
2022/07/13 09:33:43;;;;;;;1.58;1.20;;;28.00;41.90;;;;;;4976982;28;20057;-50
2022/07/13 09:36:12;;;;;;;4.38;1.10;;;28.10;41.80;;;;;;4978118;28;20065;-49
2022/07/13 09:38:42;;;;;;;3.10;1.33;;;28.10;41.70;;;;;;4979539;28;20425;-49
2022/07/13 09:41:23;;;;;;;1.40;1.20;;;28.20;41.40;;;;;;4978707;28;20073;-47
2022/07/13 09:46:55;;;;;;;1.38;1.27;;;28.30;41.00;;;;;;4978612;28;20061;-48
2022/07/13 09:49:34;;;;;;;6.22;1.33;;;28.40;40.90;;;;;;4979113;28;20054;-49
2022/07/13 09:52:03;;;;;;;3.03;1.20;;;28.50;40.40;;;;;;4976321;28;20050;-47
2022/07/13 09:54:34;;;;;;;1.55;1.45;;;28.60;40.30;;;;;;4979331;28;20059;-48
2022/07/13 09:57:04;;;;;;;2.05;1.48;;;28.70;40.30;;;;;;4978660;28;20065;-49
2022/07/13 09:59:32;;;;;;;1.83;1.20;;;28.70;40.40;;;;;;4978999;28;20050;-52
2022/07/13 10:02:01;;;;;;;3.40;1.33;;;28.80;40.90;;;;;;4975361;28;20510;-47
2022/07/13 10:04:28;;;;;;;2.75;1.45;;;28.80;41.60;;;;;;4981402;28;20061;-49
2022/07/13 10:06:56;;;;;;;1.33;1.00;;;28.90;41.10;;;;;;4980837;28;20502;-49
2022/07/13 10:09:25;;;;;;;6.97;1.40;;;29.00;40.20;;;;;;4983248;28;20050;-51
2022/07/13 10:11:54;;;;;;;1.50;1.20;;;29.00;40.10;;;;;;4982865;28;20066;-50
2022/07/13 10:14:22;;;;;;;2.47;1.17;;;29.10;40.60;;;;;;4981386;28;20054;-48
2022/07/13 10:16:52;;;;;;;3.38;1.50;;;29.20;40.50;;;;;;4980407;28;20058;-52
2022/07/13 10:19:20;;;;;;;1.23;1.13;;;29.20;40.30;;;;;;4983282;28;20057;-48
2022/07/13 10:22:03;;;;;;;2.05;1.20;;;29.30;39.70;;;;;;4984212;28;20069;-48
2022/07/13 10:24:31;;;;;;;1.30;1.10;;;29.40;39.50;;;;;;4985867;28;20050;-49
2022/07/13 10:27:22;;;;;;;3.25;1.55;;;29.50;38.90;;;;;;4979476;28;20062;-47
2022/07/13 10:29:50;;;;;;;1.25;1.02;;;29.60;39.00;;;;;;4984751;28;20055;-46
2022/07/13 10:32:21;;;;;;;1.88;1.38;;;29.70;39.10;;;;;;4980886;28;20058;-49
2022/07/13 10:34:53;;;;;;;2.67;1.33;;;29.70;38.40;;;;;;4984624;28;20418;-53
2022/07/13 10:37:22;;;;;;;3.25;1.10;;;29.80;39.10;;;;;;4981752;28;20498;-48
2022/07/13 10:40:17;;;;;;;2.15;1.13;;;29.80;38.90;;;;;;4985557;28;20046;-48
2022/07/13 10:43:14;;;;;;;3.53;1.20;;;29.90;38.20;;;;;;4960385;28;20046;-47
2022/07/13 10:45:43;;;;;;;2.67;1.73;;;29.90;37.40;;;;;;4978146;28;20054;-55
2022/07/13 10:48:42;;;;;;;5.80;1.15;;;29.90;34.80;;;;;;4980997;28;20053;-49
2022/07/13 10:51:23;;;;;;;2.88;1.75;;;29.80;35.50;;;;;;4981453;28;20505;-55
2022/07/13 10:54:07;;;;;;;3.42;1.25;;;29.80;35.40;;;;;;4984625;28;20517;-50
2022/07/13 10:56:34;;;;;;;2.90;1.15;;;29.90;35.40;;;;;;4981730;28;20418;-53
2022/07/13 10:59:04;;;;;;;3.72;1.52;;;29.90;35.80;;;;;;4982918;28;20042;-49
2022/07/13 11:01:40;;;;;;;5.28;1.30;;;30.00;35.60;;;;;;4983925;28;20418;-52
2022/07/13 11:04:09;;;;;;;4.75;1.60;;;30.00;35.80;;;;;;4984719;28;20069;-49
2022/07/13 11:06:38;;;;;;;2.20;1.40;;;30.10;35.30;;;;;;4980805;28;20065;-48
2022/07/13 11:09:14;;;;;;;2.65;1.60;;;30.20;33.30;;;;;;4981772;28;20065;-47
2022/07/13 11:11:49;;;;;;;5.57;1.40;;;30.20;34.10;;;;;;4981780;28;20042;-48
2022/07/13 11:14:47;;;;;;;1.55;1.40;;;30.40;34.30;;;;;;4981545;28;20050;-51
2022/07/13 11:17:16;;;;;;;2.47;1.90;;;30.50;34.50;;;;;;4981825;28;20050;-49
2022/07/13 11:19:54;;;;;;;2.42;1.25;;;30.60;34.30;;;;;;4982954;28;20072;-48
2022/07/13 11:22:22;;;;;;;1.23;1.13;;;30.70;34.20;;;;;;4983961;28;20058;-47
2022/07/13 11:25:14;;;;;;;4.07;1.50;;;30.70;34.20;;;;;;4983951;28;20058;-51
2022/07/13 11:27:54;;;;;;;4.53;1.75;;;30.70;32.50;;;;;;4978180;28;20050;-48
2022/07/13 11:30:28;;;;;;;2.40;1.50;;;30.70;32.20;;;;;;4982800;28;20046;-49
2022/07/13 11:32:56;;;;;;;2.75;1.70;;;30.80;32.00;;;;;;4980600;28;20514;-51
2022/07/13 11:35:24;;;;;;;5.10;1.75;;;30.80;32.50;;;;;;4981120;28;20050;-52
2022/07/13 11:37:53;;;;;;;3.13;1.50;;;30.80;31.80;;;;;;4981587;28;20134;-49
2022/07/13 11:40:27;;;;;;;4.90;1.75;;;30.90;32.30;;;;;;4983997;28;20077;-48
2022/07/13 11:42:56;;;;;;;2.53;1.50;;;31.00;33.90;;;;;;4983196;28;20797;-44
2022/07/13 11:45:32;;;;;;;5.53;2.00;;;31.10;33.40;;;;;;4981439;28;20065;-52
2022/07/13 11:48:02;;;;;;;10.52;2.13;;;31.20;31.30;;;;;;4979739;28;20058;-47
2022/07/13 11:50:42;;;;;;;3.63;1.65;;;31.20;33.70;;;;;;4982117;28;20057;-48
2022/07/13 11:53:20;;;;;;;5.18;1.80;;;31.20;31.30;;;;;;4980692;28;20054;-53
2022/07/13 11:55:48;;;;;;;3.55;1.60;;;31.30;32.00;;;;;;4980896;28;20118;-49
2022/07/13 11:58:27;;;;;;;6.60;1.70;;;31.40;31.60;;;;;;4979188;28;20065;-50
2022/07/13 12:00:56;;;;;;;5.28;1.80;;;31.40;31.00;;;;;;4979114;28;20580;-47
2022/07/13 12:03:32;;;;;;;3.85;2.05;;;31.50;31.70;;;;;;4983017;28;20755;-50
2022/07/13 12:06:05;;;;;;;4.85;1.83;;;31.50;30.10;;;;;;4977168;28;20387;-54
2022/07/13 12:08:34;;;;;;;3.90;1.83;;;31.50;30.40;;;;;;4979599;28;20050;-49
2022/07/13 12:11:03;;;;;;;9.43;1.88;;;31.60;30.80;;;;;;4983039;28;20061;-47
2022/07/13 12:13:33;;;;;;;4.07;2.20;;;31.60;30.00;;;;;;4979984;28;20050;-53
2022/07/13 12:16:02;;;;;;;2.25;1.73;;;31.60;30.40;;;;;;4978690;28;20417;-50
2022/07/13 12:18:30;;;;;;;11.80;2.28;;;31.60;31.70;;;;;;4983268;28;20058;-49
2022/07/13 12:20:58;;;;;;;8.88;2.13;;;31.70;29.70;;;;;;4983344;28;20065;-52
2022/07/13 12:23:31;;;;;;;5.38;2.28;;;31.70;30.10;;;;;;4980895;28;20517;-47
2022/07/13 12:26:06;;;;;;;15.87;2.00;;;31.70;29.90;;;;;;4975445;28;20066;-47
2022/07/13 12:28:37;;;;;;;4.38;2.03;;;31.70;31.10;;;;;;4975569;28;20493;-49
2022/07/13 12:31:07;;;;;;;7.68;1.67;;;31.80;30.70;;;;;;4979812;28;20057;-46
2022/07/13 12:33:46;;;;;;;3.60;1.90;;;31.90;30.80;;;;;;4977992;28;20062;-47
2022/07/13 12:36:15;;;;;;;7.50;2.65;;;32.00;31.20;;;;;;4980002;28;20047;-47
2022/07/13 12:38:59;;;;;;;9.35;2.08;;;32.00;30.80;;;;;;4983509;28;20054;-49
2022/07/13 12:41:29;;;;;;;3.63;1.83;;;32.00;29.80;;;;;;4982053;28;20517;-48
2022/07/13 12:43:58;;;;;;;13.73;2.17;;;32.00;30.40;;;;;;4980696;28;20065;-51
2022/07/13 12:46:44;;;;;;;6.32;2.00;;;32.10;30.60;;;;;;4976977;28;20050;-52
2022/07/13 12:49:11;;;;;;;7.25;2.10;;;32.20;30.50;;;;;;4977466;28;20057;-47
2022/07/13 12:51:50;;;;;;;8.10;2.22;;;32.10;30.10;;;;;;4979222;28;20046;-49
2022/07/13 12:54:19;;;;;;;3.85;2.10;;;32.10;30.40;;;;;;4978658;28;20414;-50
2022/07/13 12:56:49;;;;;;;5.53;2.42;;;32.10;30.20;;;;;;4979963;28;20421;-49
2022/07/13 12:59:18;;;;;;;7.45;2.42;;;32.10;31.10;;;;;;4981074;28;20066;-47
2022/07/13 13:01:48;;;;;;;7.65;2.03;;;32.10;30.50;;;;;;4980341;28;20061;-54
2022/07/13 13:04:17;;;;;;;9.13;2.28;;;32.00;31.10;;;;;;4980702;28;20061;-53
2022/07/13 13:06:47;;;;;;;5.68;2.30;;;32.10;31.50;;;;;;4980135;28;20061;-50
2022/07/13 13:09:16;;;;;;;4.20;2.03;;;32.10;31.60;;;;;;4981611;28;20061;-52